createdAt,value
2018-12-12T00:01:26.197Z,18.57
2018-12-12T00:03:53.657Z,21.57
2018-12-12T00:06:21.118Z,18.50
2018-12-12T00:08:48.592Z,15.60
2018-12-12T00:11:16.148Z,19.07
2018-12-12T00:13:43.600Z,14.37
2018-12-12T00:16:11.468Z,16.77
2018-12-12T00:18:39.149Z,13.87
2018-12-12T00:21:06.648Z,15.63
2018-12-12T00:23:34.088Z,14.97
2018-12-12T00:26:01.559Z,12.20
2018-12-12T00:28:29.305Z,16.93
2018-12-12T00:30:56.797Z,14.77
2018-12-12T00:33:24.248Z,14.83
2018-12-12T00:35:51.717Z,13.93
2018-12-12T00:38:19.165Z,14.73
2018-12-12T00:40:46.621Z,14.63
2018-12-12T00:43:15.075Z,13.43
2018-12-12T00:45:42.548Z,15.60
2018-12-12T00:48:10.224Z,16.03
2018-12-12T00:50:37.723Z,12.07
2018-12-12T00:53:05.218Z,20.67
2018-12-12T00:55:32.673Z,13.83
2018-12-12T00:58:01.102Z,19.57
2018-12-12T01:00:28.565Z,14.20
2018-12-12T01:02:56.052Z,16.70
2018-12-12T01:05:23.546Z,21.47
2018-12-12T01:07:51.002Z,19.67
2018-12-12T01:10:18.461Z,19.63
2018-12-12T01:12:45.925Z,23.50
2018-12-12T01:15:13.387Z,20.37
2018-12-12T01:17:40.836Z,19.67
2018-12-12T01:20:08.320Z,18.90
2018-12-12T01:22:35.761Z,15.63
2018-12-12T01:25:03.298Z,20.07
2018-12-12T01:27:30.785Z,14.50
2018-12-12T01:29:58.251Z,13.60
2018-12-12T01:32:25.714Z,18.83
2018-12-12T01:34:53.253Z,16.43
2018-12-12T01:37:20.749Z,16.37
2018-12-12T01:39:48.272Z,15.67
2018-12-12T01:42:15.749Z,17.90
2018-12-12T01:44:43.220Z,15.30
2018-12-12T01:47:10.678Z,20.30
2018-12-12T01:49:38.148Z,13.57
2018-12-12T01:52:05.599Z,16.23
2018-12-12T01:54:33.059Z,15.47
2018-12-12T01:57:00.517Z,17.57
2018-12-12T01:59:28.030Z,17.30
2018-12-12T02:01:55.518Z,22.53
2018-12-12T02:04:23.005Z,18.97
2018-12-12T02:06:50.473Z,20.80
2018-12-12T02:09:18.316Z,22.97
2018-12-12T02:11:45.745Z,18.93
2018-12-12T02:14:13.245Z,17.47
2018-12-12T02:16:41.110Z,21.53
2018-12-12T02:19:08.548Z,22.20
2018-12-12T02:21:36.020Z,17.07
2018-12-12T02:24:03.506Z,18.60
2018-12-12T02:26:30.974Z,15.93
2018-12-12T02:28:58.518Z,17.03
2018-12-12T02:31:25.987Z,16.40
2018-12-12T02:33:53.508Z,17.57
2018-12-12T02:36:20.972Z,19.10
2018-12-12T02:38:48.430Z,21.97
2018-12-12T02:41:16.051Z,23.50
2018-12-12T02:43:43.497Z,28.43
2018-12-12T02:46:10.976Z,28.30
2018-12-12T02:48:38.445Z,34.33
2018-12-12T02:51:05.938Z,32.60
2018-12-12T02:53:33.415Z,30.17
2018-12-12T02:56:00.909Z,30.03
2018-12-12T02:58:28.373Z,22.77
2018-12-12T03:00:55.850Z,22.90
2018-12-12T03:03:23.303Z,25.90
2018-12-12T03:05:50.767Z,22.67
2018-12-12T03:08:18.223Z,18.20
2018-12-12T03:10:45.684Z,15.20
2018-12-12T03:13:13.157Z,18.67
2018-12-12T03:15:40.636Z,19.23
2018-12-12T03:18:08.073Z,17.03
2018-12-12T03:20:35.527Z,20.77
2018-12-12T03:23:03.049Z,16.57
2018-12-12T03:25:30.514Z,21.67
2018-12-12T03:27:57.988Z,21.13
2018-12-12T03:30:25.469Z,15.30
2018-12-12T03:32:53.014Z,19.33
2018-12-12T03:35:20.474Z,27.43
2018-12-12T03:37:47.967Z,18.30
2018-12-12T03:40:15.470Z,21.77
2018-12-12T03:42:43.433Z,19.73
2018-12-12T03:45:10.925Z,18.87
2018-12-12T03:47:38.404Z,16.07
2018-12-12T03:50:05.908Z,13.13
2018-12-12T03:52:33.353Z,13.67
2018-12-12T03:55:00.842Z,12.67
2018-12-12T03:57:28.396Z,14.23
2018-12-12T03:59:55.866Z,13.03
2018-12-12T04:02:23.332Z,10.20
2018-12-12T04:04:50.779Z,12.80
2018-12-12T04:07:18.675Z,13.60
2018-12-12T04:09:46.528Z,11.87
2018-12-12T04:12:14.021Z,11.43
2018-12-12T04:14:41.475Z,12.50
2018-12-12T04:17:08.937Z,14.13
2018-12-12T04:19:36.389Z,11.10
2018-12-12T04:22:03.931Z,13.77
2018-12-12T04:24:31.716Z,13.57
2018-12-12T04:26:59.162Z,11.10
2018-12-12T04:29:26.616Z,15.93
2018-12-12T04:31:54.227Z,15.00
2018-12-12T04:34:21.746Z,14.90
2018-12-12T04:36:49.223Z,16.43
2018-12-12T04:39:16.689Z,44.00
2018-12-12T04:41:44.198Z,159.60
2018-12-12T04:44:11.682Z,101.83
2018-12-12T04:46:39.483Z,24.63
2018-12-12T04:49:06.919Z,12.90
2018-12-12T04:51:34.373Z,11.87
2018-12-12T04:54:01.827Z,11.17
2018-12-12T04:56:29.276Z,10.40
2018-12-12T04:58:57.171Z,13.23
2018-12-12T05:01:24.982Z,13.30
2018-12-12T05:03:52.445Z,13.33
2018-12-12T05:06:19.937Z,12.50
2018-12-12T05:08:47.398Z,12.93
2018-12-12T05:11:14.875Z,12.83
2018-12-12T05:13:46.892Z,11.77
2018-12-12T05:16:14.770Z,16.23
2018-12-12T05:18:42.225Z,12.23
2018-12-12T05:21:09.687Z,11.30
2018-12-12T05:23:37.129Z,12.90
2018-12-12T05:26:04.635Z,16.70
2018-12-12T05:28:32.119Z,12.37
2018-12-12T05:30:59.600Z,11.17
2018-12-12T05:33:27.057Z,11.90
2018-12-12T05:35:54.525Z,11.43
2018-12-12T05:38:21.993Z,10.97
2018-12-12T05:40:49.449Z,13.30
2018-12-12T05:43:16.906Z,12.40
2018-12-12T05:45:44.597Z,14.13
2018-12-12T05:48:12.061Z,11.30
2018-12-12T05:50:39.510Z,11.17
2018-12-12T05:53:07.012Z,10.30
2018-12-12T05:55:34.461Z,11.47
2018-12-12T05:58:02.013Z,15.83
2018-12-12T06:00:29.497Z,11.63
2018-12-12T06:02:56.964Z,10.87
2018-12-12T06:05:24.513Z,11.53
2018-12-12T06:07:51.985Z,11.50
2018-12-12T06:10:19.438Z,11.23
2018-12-12T06:12:47.417Z,16.00
2018-12-12T06:15:14.860Z,12.60
2018-12-12T06:17:42.380Z,14.33
2018-12-12T06:20:09.931Z,13.70
2018-12-12T06:22:38.106Z,11.37
2018-12-12T06:25:05.739Z,10.80
2018-12-12T06:27:33.273Z,10.37
2018-12-12T06:30:00.729Z,10.77
2018-12-12T06:32:28.193Z,11.13
2018-12-12T06:34:55.669Z,11.77
2018-12-12T06:37:23.152Z,22.67
2018-12-12T06:39:50.604Z,13.90
2018-12-12T06:42:18.073Z,15.27
2018-12-12T06:44:45.528Z,44.83
2018-12-12T06:47:12.989Z,28.10
2018-12-12T06:49:40.454Z,26.10
2018-12-12T06:52:07.960Z,19.67
2018-12-12T06:54:35.426Z,21.10
2018-12-12T06:57:02.876Z,20.17
2018-12-12T06:59:30.340Z,20.50
2018-12-12T07:01:57.860Z,25.63
2018-12-12T07:04:25.360Z,21.17
2018-12-12T07:06:52.913Z,20.90
2018-12-12T07:09:20.814Z,21.23
2018-12-12T07:11:48.293Z,24.27
2018-12-12T07:14:15.741Z,30.77
2018-12-12T07:16:43.222Z,32.57
2018-12-12T07:19:10.713Z,36.37
2018-12-12T07:21:38.218Z,36.27
2018-12-12T07:24:05.730Z,38.80
2018-12-12T07:26:33.184Z,36.97
2018-12-12T07:29:00.627Z,34.57
2018-12-12T07:31:28.133Z,29.67
2018-12-12T07:34:00.941Z,30.03
2018-12-12T07:36:25.750Z,28.40
2018-12-12T07:38:53.201Z,29.40
2018-12-12T07:41:20.833Z,25.63
2018-12-12T07:43:48.435Z,27.43
2018-12-12T07:46:16.238Z,28.70
2018-12-12T07:48:43.706Z,23.33
2018-12-12T07:51:12.057Z,26.47
2018-12-12T07:53:39.526Z,22.03
2018-12-12T07:56:07.005Z,24.17
2018-12-12T07:58:34.496Z,22.10
2018-12-12T08:01:02.695Z,25.53
2018-12-12T08:03:30.297Z,23.77
2018-12-12T08:05:57.738Z,24.90
2018-12-12T08:08:25.199Z,25.47
2018-12-12T08:10:52.674Z,25.73
2018-12-12T08:13:20.126Z,35.20
2018-12-12T08:15:47.640Z,30.03
2018-12-12T08:18:15.112Z,27.93
2018-12-12T08:20:42.557Z,29.80
2018-12-12T08:23:10.353Z,32.13
2018-12-12T08:25:38.669Z,41.10
2018-12-12T08:28:06.131Z,38.50
2018-12-12T08:30:33.583Z,41.03
2018-12-12T08:33:01.042Z,47.30
2018-12-12T08:35:28.496Z,49.57
2018-12-12T08:37:55.954Z,56.30
2018-12-12T08:40:23.416Z,44.97
2018-12-12T08:42:50.865Z,43.03
2018-12-12T08:45:18.321Z,41.77
2018-12-12T08:47:45.786Z,39.50
2018-12-12T08:50:13.293Z,34.20
2018-12-12T08:52:40.793Z,33.23
2018-12-12T08:55:08.302Z,28.73
2018-12-12T08:57:35.779Z,34.17
2018-12-12T09:00:03.897Z,29.57
2018-12-12T09:02:31.458Z,34.87
2018-12-12T09:04:58.906Z,41.13
2018-12-12T09:07:26.398Z,38.93
2018-12-12T09:09:53.855Z,40.70
2018-12-12T09:12:21.305Z,38.17
2018-12-12T09:14:48.785Z,34.77
2018-12-12T09:17:16.268Z,34.00
2018-12-12T09:19:43.717Z,31.97
2018-12-12T09:22:11.173Z,48.47
2018-12-12T09:24:38.622Z,36.93
2018-12-12T09:27:06.070Z,36.10
2018-12-12T09:29:33.525Z,40.07
2018-12-12T09:32:01.034Z,35.43
2018-12-12T09:34:28.501Z,38.97
2018-12-12T09:36:55.953Z,39.30
2018-12-12T09:39:23.419Z,56.43
2018-12-12T09:41:50.866Z,42.57
2018-12-12T09:44:18.497Z,40.00
2018-12-12T09:46:45.988Z,74.67
2018-12-12T09:49:13.453Z,80.13
2018-12-12T09:51:40.899Z,58.03
2018-12-12T09:54:08.448Z,41.60
2018-12-12T09:56:35.899Z,38.77
2018-12-12T09:59:03.419Z,34.40
2018-12-12T10:01:30.870Z,29.57
2018-12-12T10:03:58.325Z,29.13
2018-12-12T10:06:25.815Z,29.57
2018-12-12T10:08:53.311Z,38.53
2018-12-12T10:11:20.790Z,78.60
2018-12-12T10:13:48.265Z,48.93
2018-12-12T10:16:15.699Z,39.17
2018-12-12T10:18:43.193Z,42.17
2018-12-12T10:21:10.652Z,42.73
2018-12-12T10:23:38.094Z,38.50
2018-12-12T10:26:05.709Z,44.43
2018-12-12T10:28:33.205Z,49.67
2018-12-12T10:31:00.664Z,39.30
2018-12-12T10:33:28.126Z,53.23
2018-12-12T10:35:55.587Z,41.53
2018-12-12T10:38:23.055Z,52.63
2018-12-12T10:40:50.508Z,54.83
2018-12-12T10:43:17.969Z,48.27
2018-12-12T10:45:45.422Z,58.47
2018-12-12T10:48:12.900Z,51.93
2018-12-12T10:50:40.389Z,46.70
2018-12-12T10:53:07.878Z,50.37
2018-12-12T10:55:35.334Z,51.27
2018-12-12T10:58:02.839Z,47.70
2018-12-12T11:00:30.293Z,48.80
2018-12-12T11:03:03.397Z,51.40
2018-12-12T11:05:30.903Z,55.33
2018-12-12T11:07:58.366Z,50.63
2018-12-12T11:10:26.454Z,52.47
2018-12-12T11:12:53.903Z,54.97
2018-12-12T11:15:21.369Z,53.20
2018-12-12T11:17:48.857Z,49.63
2018-12-12T11:20:16.308Z,54.83
2018-12-12T11:22:43.753Z,60.93
2018-12-12T11:25:11.241Z,50.73
2018-12-12T11:27:38.697Z,57.87
2018-12-12T11:30:06.714Z,51.07
2018-12-12T11:32:34.177Z,51.00
2018-12-12T11:35:01.667Z,59.47
2018-12-12T11:37:29.115Z,42.67
2018-12-12T11:39:56.589Z,48.93
2018-12-12T11:42:24.061Z,48.07
2018-12-12T11:44:51.523Z,54.20
2018-12-12T11:47:18.969Z,44.07
2018-12-12T11:49:46.448Z,46.63
2018-12-12T11:52:13.918Z,49.47
2018-12-12T11:54:41.372Z,57.40
2018-12-12T11:57:09.170Z,55.63
2018-12-12T11:59:36.637Z,68.77
2018-12-12T12:02:04.125Z,64.87
2018-12-12T12:04:31.586Z,59.83
2018-12-12T12:06:59.088Z,64.97
2018-12-12T12:09:26.564Z,54.60
2018-12-12T12:11:54.112Z,55.17
2018-12-12T12:14:21.875Z,54.80
2018-12-12T12:16:49.307Z,49.00
2018-12-12T12:19:17.622Z,55.57
2018-12-12T12:21:45.080Z,48.40
2018-12-12T12:24:12.540Z,55.57
2018-12-12T12:26:40.016Z,44.90
2018-12-12T12:29:07.834Z,49.37
2018-12-12T12:31:35.565Z,58.17
2018-12-12T12:34:03.341Z,67.73
2018-12-12T12:36:31.012Z,62.03
2018-12-12T12:38:58.485Z,48.90
2018-12-12T12:41:25.938Z,40.77
2018-12-12T12:43:53.402Z,52.43
2018-12-12T12:46:20.880Z,44.70
2018-12-12T12:48:48.329Z,43.67
2018-12-12T12:51:15.793Z,43.13
2018-12-12T12:53:43.264Z,49.47
2018-12-12T12:56:10.718Z,57.53
2018-12-12T12:58:38.169Z,51.53
2018-12-12T13:01:05.656Z,50.73
2018-12-12T13:03:33.109Z,56.93
2018-12-12T13:06:00.571Z,59.50
2018-12-12T13:08:28.026Z,60.37
2018-12-12T13:10:55.770Z,56.00
2018-12-12T13:13:23.544Z,54.17
2018-12-12T13:15:51.442Z,54.27
2018-12-12T13:18:18.917Z,65.50
2018-12-12T13:20:46.373Z,60.83
2018-12-12T13:23:13.881Z,47.90
2018-12-12T13:25:41.669Z,57.60
2018-12-12T13:28:09.140Z,58.80
2018-12-12T13:30:36.613Z,46.57
2018-12-12T13:33:04.124Z,58.90
2018-12-12T13:35:31.580Z,52.13
2018-12-12T13:38:00.037Z,57.17
2018-12-12T13:40:27.865Z,63.03
2018-12-12T13:42:55.299Z,71.47
2018-12-12T13:45:22.760Z,71.07
2018-12-12T13:47:50.205Z,61.57
2018-12-12T13:50:17.705Z,54.73
2018-12-12T13:52:45.157Z,56.20
2018-12-12T13:55:12.621Z,59.20
2018-12-12T13:57:40.127Z,64.83
2018-12-12T14:00:07.664Z,62.00
2018-12-12T14:02:35.352Z,60.53
2018-12-12T14:05:03.038Z,58.20
2018-12-12T14:07:30.490Z,50.17
2018-12-12T14:09:57.943Z,54.63
2018-12-12T14:12:25.437Z,49.47
2018-12-12T14:14:53.165Z,49.33
2018-12-12T14:17:20.624Z,52.10
2018-12-12T14:19:48.117Z,49.13
2018-12-12T14:22:15.951Z,49.00
2018-12-12T14:24:43.470Z,50.07
2018-12-12T14:27:10.921Z,52.07
2018-12-12T14:29:38.403Z,52.33
2018-12-12T14:32:05.876Z,52.03
2018-12-12T14:34:33.328Z,65.53
2018-12-12T14:37:00.808Z,62.33
2018-12-12T14:39:28.270Z,70.77
2018-12-12T14:41:55.717Z,61.50
2018-12-12T14:44:23.914Z,52.67
2018-12-12T14:46:51.402Z,48.47
2018-12-12T14:49:18.861Z,52.40
2018-12-12T14:51:46.981Z,55.37
2018-12-12T14:54:14.767Z,57.63
2018-12-12T14:56:42.235Z,45.83
2018-12-12T14:59:09.685Z,46.00
2018-12-12T15:01:37.197Z,57.07
2018-12-12T15:04:04.977Z,48.30
2018-12-12T15:06:32.464Z,49.47
2018-12-12T15:08:59.978Z,52.97
2018-12-12T15:11:27.438Z,49.97
2018-12-12T15:13:55.245Z,57.23
2018-12-12T15:16:22.731Z,48.33
2018-12-12T15:18:50.172Z,68.37
2018-12-12T15:21:17.934Z,62.00
2018-12-12T15:23:45.796Z,51.77
2018-12-12T15:26:13.268Z,55.90
2018-12-12T15:28:40.727Z,68.70
2018-12-12T15:31:08.214Z,72.67
2018-12-12T15:33:35.665Z,66.40
2018-12-12T15:36:03.169Z,89.33
2018-12-12T15:38:30.636Z,71.77
2018-12-12T15:40:58.993Z,73.53
2018-12-12T15:43:26.440Z,61.83
2018-12-12T15:45:54.185Z,131.83
2018-12-12T15:48:21.657Z,213.17
2018-12-12T15:50:49.341Z,132.57
2018-12-12T15:53:16.795Z,85.23
2018-12-12T15:55:44.272Z,89.97
2018-12-12T15:58:11.724Z,93.13
2018-12-12T16:00:39.190Z,223.80
2018-12-12T16:03:06.815Z,163.17
2018-12-12T16:05:34.687Z,69.43
2018-12-12T16:08:02.131Z,64.10
2018-12-12T16:10:29.594Z,125.87
2018-12-12T16:12:57.100Z,122.70
2018-12-12T16:15:24.548Z,150.70
2018-12-12T16:17:52.014Z,66.73
2018-12-12T16:20:19.872Z,88.10
2018-12-12T16:22:47.328Z,68.67
2018-12-12T16:25:14.782Z,78.27
2018-12-12T16:27:42.259Z,163.60
2018-12-12T16:30:09.841Z,272.93
2018-12-12T16:32:37.374Z,218.60
2018-12-12T16:35:04.925Z,194.03
2018-12-12T16:37:32.397Z,183.13
2018-12-12T16:40:00.202Z,129.70
2018-12-12T16:42:27.678Z,74.20
2018-12-12T16:44:55.159Z,152.40
2018-12-12T16:47:22.661Z,133.37
2018-12-12T16:49:50.125Z,265.17
2018-12-12T16:52:17.628Z,253.70
2018-12-12T16:54:45.079Z,181.40
2018-12-12T16:57:12.582Z,193.83
2018-12-12T16:59:40.038Z,101.67
2018-12-12T17:02:07.525Z,139.27
2018-12-12T17:04:34.982Z,233.87
2018-12-12T17:07:02.472Z,254.83
2018-12-12T17:09:29.921Z,197.80
2018-12-12T17:11:57.418Z,207.83
2018-12-12T17:14:26.145Z,137.17
2018-12-12T17:16:53.602Z,278.93
2018-12-12T17:19:21.310Z,115.77
2018-12-12T17:21:48.781Z,61.83
2018-12-12T17:24:16.255Z,70.87
2018-12-12T17:26:43.717Z,73.97
2018-12-12T17:29:11.205Z,62.67
2018-12-12T17:31:38.706Z,69.13
2018-12-12T17:34:06.163Z,58.17
2018-12-12T17:36:33.608Z,56.27
2018-12-12T17:39:01.075Z,58.73
2018-12-12T17:41:28.546Z,61.40
2018-12-12T17:43:56.016Z,53.83
2018-12-12T17:46:23.474Z,63.10
2018-12-12T17:48:50.937Z,57.13
2018-12-12T17:51:18.403Z,48.70
2018-12-12T17:53:46.698Z,48.87
2018-12-12T17:56:14.174Z,53.40
2018-12-12T17:58:41.637Z,53.17
2018-12-12T18:01:09.151Z,50.57
2018-12-12T18:03:36.986Z,52.83
2018-12-12T18:06:04.440Z,50.03
2018-12-12T18:08:31.908Z,48.70
2018-12-12T18:10:59.373Z,45.83
2018-12-12T18:13:26.845Z,40.20
2018-12-12T18:15:54.293Z,54.07
2018-12-12T18:18:21.765Z,38.93
2018-12-12T18:20:49.212Z,40.40
2018-12-12T18:23:16.678Z,37.47
2018-12-12T18:25:44.140Z,39.83
2018-12-12T18:28:11.629Z,34.53
2018-12-12T18:30:39.121Z,36.67
2018-12-12T18:33:06.618Z,35.70
2018-12-12T18:35:34.114Z,30.23
2018-12-12T18:38:01.586Z,28.80
2018-12-12T18:40:29.053Z,24.90
2018-12-12T18:42:56.509Z,26.87
2018-12-12T18:45:23.962Z,24.20
2018-12-12T18:47:51.464Z,27.37
2018-12-12T18:50:19.174Z,26.70
2018-12-12T18:52:47.060Z,27.80
2018-12-12T18:55:14.537Z,24.87
2018-12-12T18:57:41.999Z,27.73
2018-12-12T19:00:09.627Z,23.67
2018-12-12T19:02:37.113Z,25.17
2018-12-12T19:12:04.847Z,24.67
2018-12-12T19:14:32.340Z,21.53
2018-12-12T19:16:59.835Z,24.27
2018-12-12T19:19:27.296Z,25.20
2018-12-12T19:21:54.761Z,25.43
2018-12-12T19:24:22.256Z,23.80
2018-12-12T19:26:49.707Z,26.63
2018-12-12T19:29:17.169Z,26.73
2018-12-12T19:31:44.621Z,27.00
2018-12-12T19:34:12.093Z,26.93
2018-12-12T19:36:39.537Z,24.30
2018-12-12T19:39:07.354Z,24.23
2018-12-12T19:41:34.809Z,22.47
2018-12-12T19:44:02.310Z,21.70
2018-12-12T19:46:29.774Z,23.17
2018-12-12T19:48:57.223Z,23.50
2018-12-12T19:51:24.700Z,21.17
2018-12-12T19:53:52.164Z,18.40
2018-12-12T19:56:19.753Z,22.00
2018-12-12T19:58:47.238Z,22.90
2018-12-12T20:01:14.693Z,20.53
2018-12-12T20:03:42.156Z,18.83
2018-12-12T20:06:09.619Z,19.33
2018-12-12T20:08:37.116Z,22.30
2018-12-12T20:11:04.573Z,25.77
2018-12-12T20:13:32.043Z,27.40
2018-12-12T20:15:59.826Z,24.73
2018-12-12T20:18:27.293Z,29.93
2018-12-12T20:20:54.732Z,30.20
2018-12-12T20:23:22.295Z,25.40
2018-12-12T20:25:49.794Z,21.53
2018-12-12T20:28:17.264Z,23.93
2018-12-12T20:30:44.970Z,21.43
2018-12-12T20:33:12.449Z,27.00
2018-12-12T20:35:39.914Z,24.50
2018-12-12T20:38:09.302Z,22.83
2018-12-12T20:40:36.857Z,22.37
2018-12-12T20:43:04.342Z,26.93
2018-12-12T20:45:31.799Z,23.17
2018-12-12T20:47:59.404Z,25.97
2018-12-12T20:50:26.864Z,24.03
2018-12-12T20:52:54.316Z,21.83
2018-12-12T20:55:21.866Z,22.60
2018-12-12T20:57:49.313Z,22.83
2018-12-12T21:00:16.768Z,24.73
2018-12-12T21:02:44.220Z,25.63
2018-12-12T21:05:11.689Z,22.13
2018-12-12T21:07:39.150Z,31.60
2018-12-12T21:10:06.855Z,37.50
2018-12-12T21:12:34.360Z,32.23
2018-12-12T21:15:01.806Z,37.47
2018-12-12T21:17:29.253Z,39.47
2018-12-12T21:19:57.565Z,43.10
2018-12-12T21:22:25.018Z,37.30
2018-12-12T21:24:52.487Z,32.47
2018-12-12T21:27:19.925Z,30.07
2018-12-12T21:29:47.378Z,24.70
2018-12-12T21:32:14.834Z,23.33
2018-12-12T21:34:42.297Z,21.73
2018-12-12T21:37:09.805Z,21.80
2018-12-12T21:39:37.265Z,23.57
2018-12-12T21:42:04.749Z,21.73
2018-12-12T21:44:32.220Z,22.53
2018-12-12T21:46:59.752Z,20.93
2018-12-12T21:49:27.264Z,17.70
2018-12-12T21:51:54.890Z,18.63
2018-12-12T21:54:22.343Z,22.60
2018-12-12T21:56:49.801Z,20.67
2018-12-12T21:59:17.373Z,21.13
2018-12-12T22:01:45.581Z,23.30
2018-12-12T22:04:13.130Z,24.70
2018-12-12T22:06:40.587Z,25.93
2018-12-12T22:09:08.205Z,28.20
2018-12-12T22:11:35.691Z,23.37
2018-12-12T22:14:03.314Z,21.03
2018-12-12T22:16:30.783Z,18.73
2018-12-12T22:18:58.270Z,19.77
2018-12-12T22:21:25.757Z,23.43
2018-12-12T22:23:53.224Z,23.60
2018-12-12T22:26:20.675Z,23.03
2018-12-12T22:28:48.154Z,20.67
2018-12-12T22:31:16.041Z,20.80
2018-12-12T22:33:43.489Z,20.77
2018-12-12T22:36:14.127Z,24.30
2018-12-12T22:38:40.428Z,22.90
2018-12-12T22:41:07.912Z,19.50
2018-12-12T22:43:35.359Z,20.13
2018-12-12T22:46:02.850Z,18.13
2018-12-12T22:48:30.310Z,14.03
2018-12-12T22:50:57.776Z,17.03
2018-12-12T22:53:25.222Z,14.93
2018-12-12T22:55:52.674Z,16.27
2018-12-12T22:58:20.132Z,16.07
2018-12-12T23:00:49.897Z,14.33
2018-12-12T23:03:17.749Z,14.03
2018-12-12T23:05:45.188Z,14.93
2018-12-12T23:08:12.628Z,15.63
2018-12-12T23:10:40.125Z,17.70
2018-12-12T23:13:07.910Z,12.40
2018-12-12T23:15:35.344Z,13.33
2018-12-12T23:18:02.803Z,14.17
2018-12-12T23:20:30.261Z,18.37
2018-12-12T23:22:57.733Z,12.53
2018-12-12T23:25:25.225Z,15.60
2018-12-12T23:27:52.690Z,17.20
2018-12-12T23:30:20.145Z,17.40
2018-12-12T23:32:47.595Z,15.50
2018-12-12T23:35:15.053Z,16.53
2018-12-12T23:37:42.544Z,14.57
2018-12-12T23:40:10.037Z,17.03
2018-12-12T23:42:37.526Z,12.20
2018-12-12T23:45:05.353Z,12.60
2018-12-12T23:47:32.798Z,13.67
2018-12-12T23:50:00.258Z,11.43
2018-12-12T23:52:27.745Z,18.90
2018-12-12T23:54:55.210Z,14.33
2018-12-12T23:57:22.677Z,14.63
2018-12-12T23:59:50.506Z,15.23
